sensor_id;sensor_type;location;lat;lon;timestamp;P1;durP1;ratioP1;P2;durP2;ratioP2
49392;SDS011;35268;42.642;23.308;2022-07-06T00:01:09;17.13;;;9.98;;
49392;SDS011;35268;42.642;23.308;2022-07-06T00:03:35;13.95;;;8.40;;
49392;SDS011;35268;42.642;23.308;2022-07-06T00:06:00;13.18;;;7.80;;
49392;SDS011;35268;42.642;23.308;2022-07-06T00:08:26;10.38;;;7.60;;
49392;SDS011;35268;42.642;23.308;2022-07-06T00:10:51;13.07;;;9.27;;
49392;SDS011;35268;42.642;23.308;2022-07-06T00:13:17;14.65;;;9.07;;
49392;SDS011;35268;42.642;23.308;2022-07-06T00:15:42;14.98;;;9.40;;
49392;SDS011;35268;42.642;23.308;2022-07-06T00:18:08;15.77;;;9.50;;
49392;SDS011;35268;42.642;23.308;2022-07-06T00:20:33;19.20;;;11.40;;
49392;SDS011;35268;42.642;23.308;2022-07-06T00:22:59;19.30;;;10.95;;
49392;SDS011;35268;42.642;23.308;2022-07-06T00:25:24;15.23;;;10.18;;
49392;SDS011;35268;42.642;23.308;2022-07-06T00:27:50;19.60;;;10.65;;
49392;SDS011;35268;42.642;23.308;2022-07-06T00:30:15;14.38;;;11.07;;
49392;SDS011;35268;42.642;23.308;2022-07-06T00:32:40;13.82;;;10.50;;
49392;SDS011;35268;42.642;23.308;2022-07-06T00:35:06;18.20;;;11.38;;
49392;SDS011;35268;42.642;23.308;2022-07-06T00:37:32;19.50;;;11.88;;
49392;SDS011;35268;42.642;23.308;2022-07-06T00:39:57;16.50;;;11.23;;
49392;SDS011;35268;42.642;23.308;2022-07-06T00:42:23;16.70;;;11.55;;
49392;SDS011;35268;42.642;23.308;2022-07-06T00:44:49;19.65;;;11.07;;
49392;SDS011;35268;42.642;23.308;2022-07-06T00:47:15;16.08;;;10.23;;
49392;SDS011;35268;42.642;23.308;2022-07-06T00:49:40;15.90;;;10.65;;
49392;SDS011;35268;42.642;23.308;2022-07-06T00:52:24;20.88;;;10.63;;
49392;SDS011;35268;42.642;23.308;2022-07-06T00:54:49;13.60;;;10.45;;
49392;SDS011;35268;42.642;23.308;2022-07-06T00:57:15;16.92;;;10.85;;
49392;SDS011;35268;42.642;23.308;2022-07-06T00:59:40;15.05;;;11.43;;
49392;SDS011;35268;42.642;23.308;2022-07-06T01:02:07;17.23;;;10.85;;
49392;SDS011;35268;42.642;23.308;2022-07-06T01:04:33;15.82;;;10.57;;
49392;SDS011;35268;42.642;23.308;2022-07-06T01:06:58;20.08;;;11.55;;
49392;SDS011;35268;42.642;23.308;2022-07-06T01:09:24;14.73;;;10.10;;
49392;SDS011;35268;42.642;23.308;2022-07-06T01:11:49;14.35;;;10.25;;
49392;SDS011;35268;42.642;23.308;2022-07-06T01:14:17;17.10;;;10.05;;
49392;SDS011;35268;42.642;23.308;2022-07-06T01:16:43;11.40;;;9.18;;
49392;SDS011;35268;42.642;23.308;2022-07-06T01:19:08;13.40;;;9.32;;
49392;SDS011;35268;42.642;23.308;2022-07-06T01:21:34;17.63;;;10.88;;
49392;SDS011;35268;42.642;23.308;2022-07-06T01:24:02;16.95;;;11.32;;
49392;SDS011;35268;42.642;23.308;2022-07-06T01:26:28;13.52;;;9.27;;
49392;SDS011;35268;42.642;23.308;2022-07-06T01:28:54;25.77;;;10.68;;
49392;SDS011;35268;42.642;23.308;2022-07-06T01:31:21;15.98;;;9.70;;
49392;SDS011;35268;42.642;23.308;2022-07-06T01:33:49;14.32;;;9.68;;
49392;SDS011;35268;42.642;23.308;2022-07-06T01:36:15;15.27;;;10.68;;
49392;SDS011;35268;42.642;23.308;2022-07-06T01:38:45;15.75;;;10.20;;
49392;SDS011;35268;42.642;23.308;2022-07-06T01:41:15;15.15;;;10.45;;
49392;SDS011;35268;42.642;23.308;2022-07-06T01:43:41;17.73;;;10.95;;
49392;SDS011;35268;42.642;23.308;2022-07-06T01:46:07;14.32;;;11.32;;
49392;SDS011;35268;42.642;23.308;2022-07-06T01:48:32;15.80;;;10.05;;
49392;SDS011;35268;42.642;23.308;2022-07-06T01:50:58;15.27;;;10.35;;
49392;SDS011;35268;42.642;23.308;2022-07-06T01:53:23;20.33;;;10.38;;
49392;SDS011;35268;42.642;23.308;2022-07-06T01:55:49;17.10;;;11.05;;
49392;SDS011;35268;42.642;23.308;2022-07-06T01:58:14;15.13;;;10.23;;
49392;SDS011;35268;42.642;23.308;2022-07-06T02:00:40;15.18;;;11.20;;
49392;SDS011;35268;42.642;23.308;2022-07-06T02:03:06;15.77;;;9.98;;
49392;SDS011;35268;42.642;23.308;2022-07-06T02:05:31;16.35;;;9.50;;
49392;SDS011;35268;42.642;23.308;2022-07-06T02:07:57;11.93;;;9.45;;
49392;SDS011;35268;42.642;23.308;2022-07-06T02:10:22;14.35;;;9.82;;
49392;SDS011;35268;42.642;23.308;2022-07-06T02:12:48;12.27;;;9.40;;
49392;SDS011;35268;42.642;23.308;2022-07-06T02:15:14;17.27;;;10.65;;
49392;SDS011;35268;42.642;23.308;2022-07-06T02:17:39;16.20;;;10.18;;
49392;SDS011;35268;42.642;23.308;2022-07-06T02:20:05;12.75;;;9.93;;
49392;SDS011;35268;42.642;23.308;2022-07-06T02:22:31;13.50;;;10.13;;
49392;SDS011;35268;42.642;23.308;2022-07-06T02:24:57;17.90;;;10.40;;
49392;SDS011;35268;42.642;23.308;2022-07-06T02:27:22;19.58;;;10.40;;
49392;SDS011;35268;42.642;23.308;2022-07-06T02:29:47;17.15;;;9.27;;
49392;SDS011;35268;42.642;23.308;2022-07-06T02:32:13;18.58;;;10.00;;
49392;SDS011;35268;42.642;23.308;2022-07-06T02:34:38;11.55;;;8.00;;
49392;SDS011;35268;42.642;23.308;2022-07-06T02:37:04;17.60;;;9.45;;
49392;SDS011;35268;42.642;23.308;2022-07-06T02:39:29;16.73;;;9.57;;
49392;SDS011;35268;42.642;23.308;2022-07-06T02:41:55;13.18;;;9.15;;
49392;SDS011;35268;42.642;23.308;2022-07-06T02:44:21;15.43;;;8.77;;
49392;SDS011;35268;42.642;23.308;2022-07-06T02:46:46;14.00;;;7.47;;
49392;SDS011;35268;42.642;23.308;2022-07-06T02:49:12;12.27;;;8.95;;
49392;SDS011;35268;42.642;23.308;2022-07-06T02:51:37;12.43;;;8.70;;
49392;SDS011;35268;42.642;23.308;2022-07-06T02:54:02;15.35;;;8.57;;
49392;SDS011;35268;42.642;23.308;2022-07-06T02:56:28;15.35;;;8.40;;
49392;SDS011;35268;42.642;23.308;2022-07-06T02:58:53;11.52;;;8.32;;
49392;SDS011;35268;42.642;23.308;2022-07-06T03:01:19;10.82;;;8.57;;
49392;SDS011;35268;42.642;23.308;2022-07-06T03:03:44;15.77;;;8.57;;
49392;SDS011;35268;42.642;23.308;2022-07-06T03:06:10;14.73;;;8.82;;
49392;SDS011;35268;42.642;23.308;2022-07-06T03:08:35;15.95;;;9.30;;
49392;SDS011;35268;42.642;23.308;2022-07-06T03:11:01;14.57;;;8.30;;
49392;SDS011;35268;42.642;23.308;2022-07-06T03:13:27;13.15;;;8.38;;
49392;SDS011;35268;42.642;23.308;2022-07-06T03:15:53;13.75;;;8.65;;
49392;SDS011;35268;42.642;23.308;2022-07-06T03:18:19;11.90;;;8.27;;
49392;SDS011;35268;42.642;23.308;2022-07-06T03:20:44;11.70;;;7.40;;
49392;SDS011;35268;42.642;23.308;2022-07-06T03:23:10;11.65;;;5.93;;
49392;SDS011;35268;42.642;23.308;2022-07-06T03:25:35;9.07;;;5.45;;
49392;SDS011;35268;42.642;23.308;2022-07-06T03:28:01;11.13;;;6.10;;
49392;SDS011;35268;42.642;23.308;2022-07-06T03:30:26;10.13;;;5.90;;
49392;SDS011;35268;42.642;23.308;2022-07-06T03:32:52;10.10;;;5.30;;
49392;SDS011;35268;42.642;23.308;2022-07-06T03:35:17;11.38;;;5.32;;
49392;SDS011;35268;42.642;23.308;2022-07-06T03:37:43;9.68;;;5.40;;
49392;SDS011;35268;42.642;23.308;2022-07-06T03:40:09;9.30;;;5.13;;
49392;SDS011;35268;42.642;23.308;2022-07-06T03:42:35;10.05;;;5.60;;
49392;SDS011;35268;42.642;23.308;2022-07-06T03:45:02;7.63;;;5.10;;
49392;SDS011;35268;42.642;23.308;2022-07-06T03:47:29;12.45;;;5.28;;
49392;SDS011;35268;42.642;23.308;2022-07-06T03:49:54;7.25;;;4.80;;
49392;SDS011;35268;42.642;23.308;2022-07-06T03:52:20;8.43;;;5.40;;
49392;SDS011;35268;42.642;23.308;2022-07-06T03:54:45;8.57;;;5.07;;
49392;SDS011;35268;42.642;23.308;2022-07-06T03:57:11;19.45;;;5.35;;
49392;SDS011;35268;42.642;23.308;2022-07-06T03:59:38;12.20;;;4.20;;
49392;SDS011;35268;42.642;23.308;2022-07-06T04:02:06;7.60;;;4.35;;
49392;SDS011;35268;42.642;23.308;2022-07-06T04:04:33;11.90;;;5.35;;
49392;SDS011;35268;42.642;23.308;2022-07-06T04:06:59;13.23;;;5.85;;
49392;SDS011;35268;42.642;23.308;2022-07-06T04:09:24;8.50;;;4.63;;
49392;SDS011;35268;42.642;23.308;2022-07-06T04:11:50;12.93;;;5.90;;
49392;SDS011;35268;42.642;23.308;2022-07-06T04:14:16;10.05;;;4.80;;
49392;SDS011;35268;42.642;23.308;2022-07-06T04:16:41;12.80;;;5.80;;
49392;SDS011;35268;42.642;23.308;2022-07-06T04:19:07;8.73;;;5.03;;
49392;SDS011;35268;42.642;23.308;2022-07-06T04:21:32;11.68;;;5.80;;
49392;SDS011;35268;42.642;23.308;2022-07-06T04:23:58;11.70;;;4.90;;
49392;SDS011;35268;42.642;23.308;2022-07-06T04:26:23;8.32;;;5.13;;
49392;SDS011;35268;42.642;23.308;2022-07-06T04:28:48;8.45;;;4.82;;
49392;SDS011;35268;42.642;23.308;2022-07-06T04:31:14;8.68;;;4.95;;
49392;SDS011;35268;42.642;23.308;2022-07-06T04:33:40;14.75;;;5.03;;
49392;SDS011;35268;42.642;23.308;2022-07-06T04:36:07;9.50;;;5.53;;
49392;SDS011;35268;42.642;23.308;2022-07-06T04:38:33;13.82;;;5.47;;
49392;SDS011;35268;42.642;23.308;2022-07-06T04:40:59;7.55;;;4.97;;
49392;SDS011;35268;42.642;23.308;2022-07-06T04:43:24;10.60;;;5.85;;
49392;SDS011;35268;42.642;23.308;2022-07-06T04:45:50;10.10;;;5.72;;
49392;SDS011;35268;42.642;23.308;2022-07-06T04:48:15;9.40;;;5.72;;
49392;SDS011;35268;42.642;23.308;2022-07-06T04:50:40;10.25;;;5.45;;
49392;SDS011;35268;42.642;23.308;2022-07-06T04:53:06;8.95;;;5.60;;
49392;SDS011;35268;42.642;23.308;2022-07-06T04:55:32;19.45;;;6.35;;
49392;SDS011;35268;42.642;23.308;2022-07-06T04:57:57;25.95;;;8.32;;
49392;SDS011;35268;42.642;23.308;2022-07-06T05:00:23;14.45;;;7.22;;
49392;SDS011;35268;42.642;23.308;2022-07-06T05:02:48;12.23;;;7.63;;
49392;SDS011;35268;42.642;23.308;2022-07-06T05:05:14;14.32;;;7.47;;
49392;SDS011;35268;42.642;23.308;2022-07-06T05:07:39;12.75;;;7.07;;
49392;SDS011;35268;42.642;23.308;2022-07-06T05:10:06;13.35;;;7.18;;
49392;SDS011;35268;42.642;23.308;2022-07-06T05:12:33;14.55;;;8.07;;
49392;SDS011;35268;42.642;23.308;2022-07-06T05:14:58;14.15;;;7.57;;
49392;SDS011;35268;42.642;23.308;2022-07-06T05:17:24;15.55;;;9.88;;
49392;SDS011;35268;42.642;23.308;2022-07-06T05:19:50;16.42;;;8.95;;
49392;SDS011;35268;42.642;23.308;2022-07-06T05:22:15;12.73;;;7.95;;
49392;SDS011;35268;42.642;23.308;2022-07-06T05:24:41;10.90;;;7.00;;
49392;SDS011;35268;42.642;23.308;2022-07-06T05:27:06;11.13;;;7.82;;
49392;SDS011;35268;42.642;23.308;2022-07-06T05:29:31;13.35;;;6.90;;
49392;SDS011;35268;42.642;23.308;2022-07-06T05:31:57;17.45;;;8.73;;
49392;SDS011;35268;42.642;23.308;2022-07-06T05:34:22;15.48;;;7.45;;
49392;SDS011;35268;42.642;23.308;2022-07-06T05:36:48;13.60;;;7.93;;
49392;SDS011;35268;42.642;23.308;2022-07-06T05:39:13;14.27;;;7.20;;
49392;SDS011;35268;42.642;23.308;2022-07-06T05:41:44;13.35;;;7.35;;
49392;SDS011;35268;42.642;23.308;2022-07-06T05:44:09;10.20;;;6.25;;
49392;SDS011;35268;42.642;23.308;2022-07-06T05:46:34;15.30;;;6.80;;
49392;SDS011;35268;42.642;23.308;2022-07-06T05:49:00;14.68;;;7.45;;
49392;SDS011;35268;42.642;23.308;2022-07-06T05:51:44;12.20;;;7.32;;
49392;SDS011;35268;42.642;23.308;2022-07-06T05:54:09;10.90;;;6.53;;
49392;SDS011;35268;42.642;23.308;2022-07-06T05:56:35;15.88;;;7.88;;
49392;SDS011;35268;42.642;23.308;2022-07-06T05:59:00;15.07;;;7.80;;
49392;SDS011;35268;42.642;23.308;2022-07-06T06:01:25;13.48;;;7.38;;
49392;SDS011;35268;42.642;23.308;2022-07-06T06:03:51;9.27;;;6.82;;
49392;SDS011;35268;42.642;23.308;2022-07-06T06:06:16;14.80;;;7.22;;
49392;SDS011;35268;42.642;23.308;2022-07-06T06:08:42;11.27;;;7.63;;
49392;SDS011;35268;42.642;23.308;2022-07-06T06:11:07;15.88;;;8.02;;
49392;SDS011;35268;42.642;23.308;2022-07-06T06:13:33;20.83;;;7.18;;
49392;SDS011;35268;42.642;23.308;2022-07-06T06:15:58;11.55;;;7.10;;
49392;SDS011;35268;42.642;23.308;2022-07-06T06:18:24;11.90;;;6.60;;
49392;SDS011;35268;42.642;23.308;2022-07-06T06:20:49;14.30;;;7.82;;
49392;SDS011;35268;42.642;23.308;2022-07-06T06:23:14;15.70;;;8.55;;
49392;SDS011;35268;42.642;23.308;2022-07-06T06:25:40;10.05;;;7.50;;
49392;SDS011;35268;42.642;23.308;2022-07-06T06:28:06;12.63;;;7.28;;
49392;SDS011;35268;42.642;23.308;2022-07-06T06:30:33;12.20;;;7.70;;
49392;SDS011;35268;42.642;23.308;2022-07-06T06:33:16;12.10;;;7.70;;
49392;SDS011;35268;42.642;23.308;2022-07-06T06:35:44;14.05;;;7.68;;
49392;SDS011;35268;42.642;23.308;2022-07-06T06:38:09;15.73;;;7.90;;
49392;SDS011;35268;42.642;23.308;2022-07-06T06:40:35;11.70;;;7.95;;
49392;SDS011;35268;42.642;23.308;2022-07-06T06:43:00;14.10;;;8.73;;
49392;SDS011;35268;42.642;23.308;2022-07-06T06:45:26;15.65;;;8.85;;
49392;SDS011;35268;42.642;23.308;2022-07-06T06:47:51;19.48;;;9.73;;
49392;SDS011;35268;42.642;23.308;2022-07-06T06:50:17;15.90;;;9.18;;
49392;SDS011;35268;42.642;23.308;2022-07-06T06:52:42;13.90;;;8.57;;
49392;SDS011;35268;42.642;23.308;2022-07-06T06:55:08;18.52;;;9.60;;
49392;SDS011;35268;42.642;23.308;2022-07-06T06:57:34;15.57;;;8.90;;
49392;SDS011;35268;42.642;23.308;2022-07-06T06:59:59;15.48;;;8.68;;
49392;SDS011;35268;42.642;23.308;2022-07-06T07:02:24;18.65;;;9.10;;
49392;SDS011;35268;42.642;23.308;2022-07-06T07:04:50;14.27;;;8.98;;
49392;SDS011;35268;42.642;23.308;2022-07-06T07:07:15;12.55;;;9.30;;
49392;SDS011;35268;42.642;23.308;2022-07-06T07:09:41;17.83;;;10.55;;
49392;SDS011;35268;42.642;23.308;2022-07-06T07:12:07;19.38;;;9.85;;
49392;SDS011;35268;42.642;23.308;2022-07-06T07:14:32;19.55;;;9.15;;
49392;SDS011;35268;42.642;23.308;2022-07-06T07:16:58;17.23;;;10.02;;
49392;SDS011;35268;42.642;23.308;2022-07-06T07:19:23;15.63;;;10.90;;
49392;SDS011;35268;42.642;23.308;2022-07-06T07:21:48;14.50;;;9.63;;
49392;SDS011;35268;42.642;23.308;2022-07-06T07:24:14;19.90;;;10.50;;
49392;SDS011;35268;42.642;23.308;2022-07-06T07:26:40;17.80;;;10.40;;
49392;SDS011;35268;42.642;23.308;2022-07-06T07:29:05;14.75;;;10.52;;
49392;SDS011;35268;42.642;23.308;2022-07-06T07:31:30;20.65;;;11.57;;
49392;SDS011;35268;42.642;23.308;2022-07-06T07:33:56;16.80;;;10.77;;
49392;SDS011;35268;42.642;23.308;2022-07-06T07:36:23;23.13;;;13.45;;
49392;SDS011;35268;42.642;23.308;2022-07-06T07:38:49;14.98;;;10.73;;
49392;SDS011;35268;42.642;23.308;2022-07-06T07:41:15;14.13;;;10.38;;
49392;SDS011;35268;42.642;23.308;2022-07-06T07:43:41;24.13;;;11.57;;
49392;SDS011;35268;42.642;23.308;2022-07-06T07:46:08;19.88;;;11.88;;
49392;SDS011;35268;42.642;23.308;2022-07-06T07:48:33;18.48;;;11.05;;
49392;SDS011;35268;42.642;23.308;2022-07-06T07:50:58;19.73;;;11.23;;
49392;SDS011;35268;42.642;23.308;2022-07-06T07:53:24;19.13;;;11.23;;
49392;SDS011;35268;42.642;23.308;2022-07-06T07:55:49;13.95;;;10.15;;
49392;SDS011;35268;42.642;23.308;2022-07-06T07:58:15;17.95;;;11.02;;
49392;SDS011;35268;42.642;23.308;2022-07-06T08:00:40;16.17;;;10.85;;
49392;SDS011;35268;42.642;23.308;2022-07-06T08:03:06;16.88;;;10.40;;
49392;SDS011;35268;42.642;23.308;2022-07-06T08:05:31;15.82;;;11.48;;
49392;SDS011;35268;42.642;23.308;2022-07-06T08:07:56;14.07;;;11.18;;
49392;SDS011;35268;42.642;23.308;2022-07-06T08:10:22;13.77;;;10.30;;
49392;SDS011;35268;42.642;23.308;2022-07-06T08:12:47;13.55;;;11.15;;
49392;SDS011;35268;42.642;23.308;2022-07-06T08:15:13;15.95;;;10.85;;
49392;SDS011;35268;42.642;23.308;2022-07-06T08:17:38;17.50;;;11.00;;
49392;SDS011;35268;42.642;23.308;2022-07-06T08:20:05;17.40;;;10.57;;
49392;SDS011;35268;42.642;23.308;2022-07-06T08:22:31;15.40;;;10.75;;
49392;SDS011;35268;42.642;23.308;2022-07-06T08:24:57;20.35;;;10.35;;
49392;SDS011;35268;42.642;23.308;2022-07-06T08:27:23;18.33;;;10.00;;
49392;SDS011;35268;42.642;23.308;2022-07-06T08:29:49;12.13;;;9.63;;
49392;SDS011;35268;42.642;23.308;2022-07-06T08:32:14;18.75;;;10.43;;
49392;SDS011;35268;42.642;23.308;2022-07-06T08:34:40;16.50;;;9.95;;
49392;SDS011;35268;42.642;23.308;2022-07-06T08:37:05;13.75;;;9.85;;
49392;SDS011;35268;42.642;23.308;2022-07-06T08:39:31;20.10;;;10.10;;
49392;SDS011;35268;42.642;23.308;2022-07-06T08:41:56;15.57;;;9.90;;
49392;SDS011;35268;42.642;23.308;2022-07-06T08:44:23;11.40;;;9.23;;
49392;SDS011;35268;42.642;23.308;2022-07-06T08:46:50;13.45;;;9.50;;
49392;SDS011;35268;42.642;23.308;2022-07-06T08:49:17;15.77;;;9.90;;
49392;SDS011;35268;42.642;23.308;2022-07-06T08:51:43;16.20;;;10.50;;
49392;SDS011;35268;42.642;23.308;2022-07-06T08:54:10;11.73;;;9.27;;
49392;SDS011;35268;42.642;23.308;2022-07-06T08:56:36;17.30;;;10.10;;
49392;SDS011;35268;42.642;23.308;2022-07-06T08:59:02;14.23;;;9.15;;
49392;SDS011;35268;42.642;23.308;2022-07-06T09:01:27;11.80;;;9.52;;
49392;SDS011;35268;42.642;23.308;2022-07-06T09:03:54;13.32;;;9.93;;
49392;SDS011;35268;42.642;23.308;2022-07-06T09:06:24;15.38;;;9.68;;
49392;SDS011;35268;42.642;23.308;2022-07-06T09:08:52;14.35;;;9.20;;
49392;SDS011;35268;42.642;23.308;2022-07-06T09:11:19;16.15;;;9.45;;
49392;SDS011;35268;42.642;23.308;2022-07-06T09:13:46;18.58;;;9.90;;
49392;SDS011;35268;42.642;23.308;2022-07-06T09:16:13;12.73;;;9.45;;
49392;SDS011;35268;42.642;23.308;2022-07-06T09:18:39;17.70;;;10.45;;
49392;SDS011;35268;42.642;23.308;2022-07-06T09:21:07;27.15;;;9.98;;
49392;SDS011;35268;42.642;23.308;2022-07-06T09:23:33;15.05;;;9.65;;
49392;SDS011;35268;42.642;23.308;2022-07-06T09:26:03;18.42;;;9.30;;
49392;SDS011;35268;42.642;23.308;2022-07-06T09:28:42;16.98;;;10.38;;
49392;SDS011;35268;42.642;23.308;2022-07-06T09:31:09;12.10;;;9.65;;
49392;SDS011;35268;42.642;23.308;2022-07-06T09:33:35;11.05;;;8.50;;
49392;SDS011;35268;42.642;23.308;2022-07-06T09:36:00;11.75;;;9.07;;
49392;SDS011;35268;42.642;23.308;2022-07-06T09:38:27;13.45;;;9.88;;
49392;SDS011;35268;42.642;23.308;2022-07-06T09:40:53;15.52;;;9.82;;
49392;SDS011;35268;42.642;23.308;2022-07-06T09:43:20;13.02;;;9.05;;
49392;SDS011;35268;42.642;23.308;2022-07-06T09:45:51;13.55;;;10.40;;
49392;SDS011;35268;42.642;23.308;2022-07-06T09:48:20;14.73;;;9.13;;
49392;SDS011;35268;42.642;23.308;2022-07-06T09:50:48;12.13;;;8.18;;
49392;SDS011;35268;42.642;23.308;2022-07-06T09:53:19;13.25;;;10.85;;
49392;SDS011;35268;42.642;23.308;2022-07-06T09:55:50;15.93;;;10.02;;
49392;SDS011;35268;42.642;23.308;2022-07-06T09:58:16;17.20;;;10.77;;
49392;SDS011;35268;42.642;23.308;2022-07-06T10:00:43;17.63;;;12.15;;
49392;SDS011;35268;42.642;23.308;2022-07-06T10:03:09;15.27;;;11.65;;
49392;SDS011;35268;42.642;23.308;2022-07-06T10:05:39;16.05;;;10.68;;
49392;SDS011;35268;42.642;23.308;2022-07-06T10:08:07;15.40;;;11.43;;
49392;SDS011;35268;42.642;23.308;2022-07-06T10:10:34;19.73;;;11.45;;
49392;SDS011;35268;42.642;23.308;2022-07-06T10:13:01;13.80;;;10.57;;
49392;SDS011;35268;42.642;23.308;2022-07-06T10:15:28;14.07;;;9.60;;
49392;SDS011;35268;42.642;23.308;2022-07-06T10:17:58;18.30;;;11.25;;
49392;SDS011;35268;42.642;23.308;2022-07-06T10:20:24;12.48;;;10.32;;
49392;SDS011;35268;42.642;23.308;2022-07-06T10:22:53;13.90;;;10.52;;
49392;SDS011;35268;42.642;23.308;2022-07-06T10:25:24;15.00;;;11.55;;
49392;SDS011;35268;42.642;23.308;2022-07-06T10:27:50;16.23;;;11.02;;
49392;SDS011;35268;42.642;23.308;2022-07-06T10:30:17;15.07;;;10.15;;
49392;SDS011;35268;42.642;23.308;2022-07-06T10:32:45;14.32;;;10.70;;
49392;SDS011;35268;42.642;23.308;2022-07-06T10:35:14;17.88;;;10.27;;
49392;SDS011;35268;42.642;23.308;2022-07-06T10:37:42;16.05;;;12.02;;
49392;SDS011;35268;42.642;23.308;2022-07-06T10:40:07;14.23;;;10.98;;
49392;SDS011;35268;42.642;23.308;2022-07-06T10:42:56;18.85;;;11.27;;
49392;SDS011;35268;42.642;23.308;2022-07-06T10:53:15;20.85;;;11.27;;
49392;SDS011;35268;42.642;23.308;2022-07-06T10:55:45;17.30;;;11.38;;
49392;SDS011;35268;42.642;23.308;2022-07-06T11:01:05;14.50;;;9.52;;
49392;SDS011;35268;42.642;23.308;2022-07-06T11:03:41;15.75;;;11.38;;
49392;SDS011;35268;42.642;23.308;2022-07-06T11:11:12;13.80;;;10.98;;
49392;SDS011;35268;42.642;23.308;2022-07-06T11:16:29;14.30;;;11.57;;
49392;SDS011;35268;42.642;23.308;2022-07-06T11:19:00;14.15;;;11.05;;
49392;SDS011;35268;42.642;23.308;2022-07-06T11:21:34;16.40;;;11.55;;
49392;SDS011;35268;42.642;23.308;2022-07-06T11:24:04;17.48;;;12.45;;
49392;SDS011;35268;42.642;23.308;2022-07-06T11:26:32;14.43;;;11.95;;
49392;SDS011;35268;42.642;23.308;2022-07-06T11:29:01;15.95;;;12.52;;
49392;SDS011;35268;42.642;23.308;2022-07-06T11:31:36;14.30;;;11.45;;
49392;SDS011;35268;42.642;23.308;2022-07-06T11:34:03;15.82;;;11.23;;
49392;SDS011;35268;42.642;23.308;2022-07-06T11:36:30;14.43;;;12.32;;
49392;SDS011;35268;42.642;23.308;2022-07-06T11:38:56;17.15;;;11.30;;
49392;SDS011;35268;42.642;23.308;2022-07-06T11:41:21;15.75;;;11.65;;
49392;SDS011;35268;42.642;23.308;2022-07-06T11:43:47;17.73;;;11.88;;
49392;SDS011;35268;42.642;23.308;2022-07-06T11:46:23;14.85;;;10.73;;
49392;SDS011;35268;42.642;23.308;2022-07-06T11:49:01;14.77;;;10.80;;
49392;SDS011;35268;42.642;23.308;2022-07-06T11:51:28;12.55;;;10.18;;
49392;SDS011;35268;42.642;23.308;2022-07-06T11:53:58;16.58;;;10.57;;
49392;SDS011;35268;42.642;23.308;2022-07-06T11:56:25;11.65;;;9.63;;
49392;SDS011;35268;42.642;23.308;2022-07-06T11:58:57;13.45;;;10.70;;
49392;SDS011;35268;42.642;23.308;2022-07-06T12:01:25;11.68;;;10.10;;
49392;SDS011;35268;42.642;23.308;2022-07-06T12:03:52;13.32;;;10.73;;
49392;SDS011;35268;42.642;23.308;2022-07-06T12:06:19;13.07;;;10.07;;
49392;SDS011;35268;42.642;23.308;2022-07-06T12:08:50;12.32;;;10.05;;
49392;SDS011;35268;42.642;23.308;2022-07-06T12:11:28;12.57;;;9.60;;
49392;SDS011;35268;42.642;23.308;2022-07-06T12:14:00;17.02;;;11.50;;
49392;SDS011;35268;42.642;23.308;2022-07-06T12:16:30;13.93;;;10.57;;
49392;SDS011;35268;42.642;23.308;2022-07-06T12:18:59;14.25;;;10.00;;
49392;SDS011;35268;42.642;23.308;2022-07-06T12:21:26;16.15;;;11.07;;
49392;SDS011;35268;42.642;23.308;2022-07-06T12:23:52;13.27;;;11.00;;
49392;SDS011;35268;42.642;23.308;2022-07-06T12:26:19;14.23;;;9.93;;
49392;SDS011;35268;42.642;23.308;2022-07-06T12:31:36;10.43;;;8.60;;
49392;SDS011;35268;42.642;23.308;2022-07-06T12:34:03;14.70;;;9.07;;
49392;SDS011;35268;42.642;23.308;2022-07-06T12:36:29;9.98;;;8.50;;
49392;SDS011;35268;42.642;23.308;2022-07-06T12:38:56;14.07;;;8.32;;
49392;SDS011;35268;42.642;23.308;2022-07-06T12:44:53;11.07;;;7.35;;
49392;SDS011;35268;42.642;23.308;2022-07-06T12:47:35;9.77;;;6.82;;
49392;SDS011;35268;42.642;23.308;2022-07-06T12:52:31;10.23;;;7.05;;
49392;SDS011;35268;42.642;23.308;2022-07-06T12:54:59;11.55;;;6.80;;
49392;SDS011;35268;42.642;23.308;2022-07-06T12:57:26;7.70;;;6.07;;
49392;SDS011;35268;42.642;23.308;2022-07-06T13:02:22;8.07;;;6.63;;
49392;SDS011;35268;42.642;23.308;2022-07-06T13:05:07;7.60;;;5.90;;
49392;SDS011;35268;42.642;23.308;2022-07-06T13:07:38;8.45;;;6.13;;
49392;SDS011;35268;42.642;23.308;2022-07-06T13:10:10;8.18;;;5.75;;
49392;SDS011;35268;42.642;23.308;2022-07-06T13:12:37;8.90;;;6.05;;
49392;SDS011;35268;42.642;23.308;2022-07-06T13:15:04;9.32;;;6.45;;
49392;SDS011;35268;42.642;23.308;2022-07-06T13:17:30;6.93;;;5.60;;
49392;SDS011;35268;42.642;23.308;2022-07-06T13:19:56;7.53;;;5.40;;
49392;SDS011;35268;42.642;23.308;2022-07-06T13:22:21;7.70;;;4.57;;
49392;SDS011;35268;42.642;23.308;2022-07-06T13:24:47;6.55;;;4.72;;
49392;SDS011;35268;42.642;23.308;2022-07-06T13:27:12;5.93;;;4.07;;
49392;SDS011;35268;42.642;23.308;2022-07-06T13:29:38;8.95;;;4.28;;
49392;SDS011;35268;42.642;23.308;2022-07-06T13:32:04;4.35;;;3.20;;
49392;SDS011;35268;42.642;23.308;2022-07-06T13:34:30;5.43;;;4.15;;
49392;SDS011;35268;42.642;23.308;2022-07-06T13:36:56;7.28;;;4.55;;
49392;SDS011;35268;42.642;23.308;2022-07-06T13:39:21;7.50;;;3.97;;
49392;SDS011;35268;42.642;23.308;2022-07-06T13:41:48;6.63;;;4.97;;
49392;SDS011;35268;42.642;23.308;2022-07-06T13:44:13;4.80;;;3.30;;
49392;SDS011;35268;42.642;23.308;2022-07-06T13:46:39;6.68;;;3.50;;
49392;SDS011;35268;42.642;23.308;2022-07-06T13:49:04;6.30;;;3.38;;
49392;SDS011;35268;42.642;23.308;2022-07-06T13:51:30;6.70;;;3.58;;
49392;SDS011;35268;42.642;23.308;2022-07-06T13:53:57;13.07;;;3.13;;
49392;SDS011;35268;42.642;23.308;2022-07-06T13:56:23;7.72;;;2.33;;
49392;SDS011;35268;42.642;23.308;2022-07-06T13:58:49;4.57;;;2.38;;
49392;SDS011;35268;42.642;23.308;2022-07-06T14:01:15;3.63;;;2.08;;
49392;SDS011;35268;42.642;23.308;2022-07-06T14:03:41;6.10;;;2.42;;
49392;SDS011;35268;42.642;23.308;2022-07-06T14:06:07;3.17;;;2.00;;
49392;SDS011;35268;42.642;23.308;2022-07-06T14:08:33;7.03;;;2.40;;
49392;SDS011;35268;42.642;23.308;2022-07-06T14:11:03;3.25;;;1.80;;
49392;SDS011;35268;42.642;23.308;2022-07-06T14:13:30;5.15;;;1.77;;
49392;SDS011;35268;42.642;23.308;2022-07-06T14:15:56;5.40;;;1.95;;
49392;SDS011;35268;42.642;23.308;2022-07-06T14:18:22;4.10;;;1.60;;
49392;SDS011;35268;42.642;23.308;2022-07-06T14:20:48;6.55;;;2.03;;
49392;SDS011;35268;42.642;23.308;2022-07-06T14:23:14;2.78;;;1.42;;
49392;SDS011;35268;42.642;23.308;2022-07-06T14:25:41;3.50;;;1.50;;
49392;SDS011;35268;42.642;23.308;2022-07-06T14:28:07;4.10;;;1.95;;
49392;SDS011;35268;42.642;23.308;2022-07-06T14:30:34;3.83;;;1.77;;
49392;SDS011;35268;42.642;23.308;2022-07-06T14:33:03;2.83;;;1.45;;
49392;SDS011;35268;42.642;23.308;2022-07-06T14:35:32;10.95;;;2.03;;
49392;SDS011;35268;42.642;23.308;2022-07-06T14:37:59;2.45;;;1.58;;
49392;SDS011;35268;42.642;23.308;2022-07-06T14:40:25;3.92;;;1.55;;
49392;SDS011;35268;42.642;23.308;2022-07-06T14:42:50;3.90;;;1.70;;
49392;SDS011;35268;42.642;23.308;2022-07-06T14:45:15;4.40;;;1.90;;